Time;durP1;ratioP1;P1;durP2;ratioP2;P2;SDS_P1;SDS_P2;PMS_P1;PMS_P2;Temp;Humidity;BMP_temperature;BMP_pressure;BME280_temperature;BME280_humidity;BME280_pressure;Samples;Min_cycle;Max_cycle;Signal;HPM_P1;HPM_P2
2022/02/13 00:00:11;;;;;;;10.43;9.33;;;2.10;99.90;;;;;;5050949;28;20250;-70
2022/02/13 00:02:38;;;;;;;11.83;10.63;;;2.20;99.90;;;;;;5050212;28;20212;-70
2022/02/13 00:05:05;;;;;;;10.80;9.53;;;2.10;99.90;;;;;;5050773;28;20418;-70
2022/02/13 00:07:31;;;;;;;11.23;10.13;;;2.10;99.90;;;;;;5049539;28;20470;-70
2022/02/13 00:09:57;;;;;;;11.97;9.83;;;2.00;99.90;;;;;;5042746;28;20431;-68
2022/02/13 00:12:23;;;;;;;11.43;10.07;;;2.20;99.90;;;;;;5050266;28;20416;-71
2022/02/13 00:14:48;;;;;;;12.60;9.90;;;2.20;99.90;;;;;;5049459;28;20425;-68
2022/02/13 00:17:14;;;;;;;12.30;11.03;;;2.20;99.90;;;;;;5031781;28;20182;-70
2022/02/13 00:19:40;;;;;;;16.27;11.40;;;2.10;99.90;;;;;;5049731;28;20464;-69
2022/02/13 00:22:06;;;;;;;13.97;12.60;;;2.10;99.90;;;;;;5034326;28;20201;-70
2022/02/13 00:24:32;;;;;;;13.37;11.87;;;2.10;99.90;;;;;;5039408;28;20413;-70
2022/02/13 00:26:57;;;;;;;17.13;13.43;;;1.90;99.90;;;;;;5049694;28;20200;-70
2022/02/13 00:29:23;;;;;;;14.80;12.30;;;1.70;99.90;;;;;;5050322;28;20198;-70
2022/02/13 00:31:49;;;;;;;13.57;11.60;;;1.70;99.90;;;;;;5050509;28;20188;-68
2022/02/13 00:34:15;;;;;;;15.20;12.57;;;1.70;99.90;;;;;;5050491;28;20482;-70
2022/02/13 00:36:40;;;;;;;12.57;9.77;;;1.60;99.90;;;;;;5050861;28;20178;-70
2022/02/13 00:39:09;;;;;;;10.00;9.10;;;1.70;99.90;;;;;;5051375;28;20256;-70
2022/02/13 00:41:35;;;;;;;11.60;9.50;;;1.70;99.90;;;;;;5050493;28;20282;-69
2022/02/13 00:44:01;;;;;;;11.83;9.17;;;1.90;99.90;;;;;;5050583;28;20481;-69
2022/02/13 00:46:27;;;;;;;12.33;10.93;;;1.80;99.90;;;;;;5050928;28;20272;-68
2022/02/13 00:48:54;;;;;;;9.90;8.90;;;1.80;99.90;;;;;;5051575;28;20198;-70
2022/02/13 00:51:20;;;;;;;9.87;8.87;;;1.80;99.90;;;;;;5050877;28;20464;-70
2022/02/13 00:53:46;;;;;;;11.90;10.50;;;1.70;99.90;;;;;;5031479;28;20420;-70
2022/02/13 00:56:12;;;;;;;12.30;10.60;;;1.70;99.90;;;;;;5049947;28;20427;-70
2022/02/13 00:58:37;;;;;;;17.17;12.80;;;1.70;99.90;;;;;;5049268;28;20845;-70
2022/02/13 01:01:04;;;;;;;14.13;9.27;;;1.70;99.90;;;;;;5049835;28;20801;-70
2022/02/13 01:03:29;;;;;;;13.50;10.90;;;1.70;99.90;;;;;;5050411;28;20174;-70
2022/02/13 01:05:55;;;;;;;17.50;12.93;;;1.80;99.90;;;;;;5037371;28;20715;-70
2022/02/13 01:08:21;;;;;;;12.83;11.10;;;1.80;99.90;;;;;;5050631;28;20428;-70
2022/02/13 01:10:46;;;;;;;13.43;10.90;;;1.90;99.90;;;;;;5048411;28;20245;-71
2022/02/13 01:13:12;;;;;;;18.70;14.20;;;1.60;99.90;;;;;;5051175;28;20655;-70
2022/02/13 01:15:37;;;;;;;16.93;12.20;;;1.40;99.90;;;;;;5049510;28;20178;-70
2022/02/13 01:18:03;;;;;;;15.27;12.70;;;1.50;99.90;;;;;;5049365;28;20256;-69
2022/02/13 01:20:29;;;;;;;14.80;12.80;;;1.60;99.90;;;;;;5049608;28;20615;-70
2022/02/13 01:22:54;;;;;;;15.17;13.00;;;1.50;99.90;;;;;;5034753;28;20267;-69
2022/02/13 01:25:20;;;;;;;14.57;12.40;;;1.50;99.90;;;;;;5050549;28;20181;-69
2022/02/13 01:27:46;;;;;;;14.80;12.37;;;1.60;99.90;;;;;;5043200;28;20202;-69
2022/02/13 01:30:12;;;;;;;14.90;11.50;;;1.60;99.90;;;;;;5050347;28;20415;-69
2022/02/13 01:32:38;;;;;;;11.40;10.20;;;1.70;99.90;;;;;;5049282;28;20177;-69
2022/02/13 01:35:04;;;;;;;10.70;9.60;;;1.90;99.90;;;;;;5050491;28;20181;-70
2022/02/13 01:37:30;;;;;;;12.10;10.17;;;1.90;99.90;;;;;;5050198;28;20189;-69
2022/02/13 01:39:56;;;;;;;12.20;10.97;;;1.80;99.90;;;;;;5050723;28;20412;-69
2022/02/13 01:42:21;;;;;;;11.60;10.27;;;1.70;99.90;;;;;;5039862;28;20390;-70
2022/02/13 01:44:51;;;;;;;14.43;10.13;;;1.80;99.90;;;;;;5048685;28;20239;-69
2022/02/13 01:47:17;;;;;;;13.63;12.07;;;1.70;99.90;;;;;;5049224;28;20257;-69
2022/02/13 01:49:42;;;;;;;10.20;8.93;;;1.90;99.90;;;;;;5049187;28;20495;-69
2022/02/13 01:52:08;;;;;;;11.20;10.07;;;1.90;99.90;;;;;;5039005;28;20175;-69
2022/02/13 01:54:34;;;;;;;10.50;9.30;;;2.00;99.90;;;;;;5049462;28;20233;-69
2022/02/13 01:56:59;;;;;;;14.40;11.07;;;2.00;99.90;;;;;;5048429;28;20228;-69
2022/02/13 01:59:25;;;;;;;13.30;11.30;;;1.90;99.90;;;;;;5048525;28;20215;-69
2022/02/13 02:01:51;;;;;;;13.17;10.47;;;1.90;99.90;;;;;;5048796;28;20260;-69
2022/02/13 02:04:16;;;;;;;12.93;11.00;;;1.90;99.90;;;;;;5049294;28;20196;-69
2022/02/13 02:06:42;;;;;;;12.43;9.93;;;1.90;99.90;;;;;;5048148;28;20190;-70
2022/02/13 02:09:08;;;;;;;10.27;9.27;;;1.90;99.90;;;;;;5048333;28;20201;-69
2022/02/13 02:11:34;;;;;;;11.20;10.00;;;2.00;99.90;;;;;;5048870;28;20178;-69
2022/02/13 02:14:00;;;;;;;11.67;10.57;;;2.10;99.90;;;;;;5048517;28;20420;-70
2022/02/13 02:16:25;;;;;;;11.30;10.00;;;2.00;99.90;;;;;;5051671;28;20440;-70
2022/02/13 02:18:51;;;;;;;11.73;9.80;;;2.10;99.90;;;;;;5055339;28;20201;-69
2022/02/13 02:21:17;;;;;;;11.37;10.23;;;2.00;99.90;;;;;;5055224;28;20254;-69
2022/02/13 02:23:42;;;;;;;13.13;10.37;;;2.10;99.90;;;;;;5048596;28;20182;-69
2022/02/13 02:26:08;;;;;;;11.57;8.60;;;2.10;99.90;;;;;;5054605;28;20181;-69
2022/02/13 02:28:34;;;;;;;10.63;9.50;;;2.10;99.90;;;;;;5054804;28;20231;-70
2022/02/13 02:31:01;;;;;;;13.43;10.47;;;2.00;99.90;;;;;;5055031;28;20527;-69
2022/02/13 02:33:27;;;;;;;9.30;8.13;;;2.00;99.90;;;;;;5054849;28;20467;-69
2022/02/13 02:35:54;;;;;;;13.17;10.20;;;1.90;99.90;;;;;;5054609;28;21163;-69
2022/02/13 02:38:20;;;;;;;9.97;9.07;;;2.00;99.90;;;;;;5054626;28;20464;-69
2022/02/13 02:40:46;;;;;;;11.70;9.97;;;2.00;99.90;;;;;;5053565;28;20471;-69
2022/02/13 02:43:12;;;;;;;13.20;9.20;;;2.00;99.90;;;;;;5054773;28;20416;-69
2022/02/13 02:45:37;;;;;;;10.70;8.70;;;2.10;99.90;;;;;;5042393;28;20724;-69
2022/02/13 02:48:03;;;;;;;11.20;9.63;;;2.00;99.90;;;;;;5054443;28;20198;-69
2022/02/13 02:50:29;;;;;;;11.37;10.00;;;2.00;99.90;;;;;;5054518;28;20225;-69
2022/02/13 02:52:56;;;;;;;10.50;9.40;;;2.10;99.90;;;;;;5054980;28;20445;-70
2022/02/13 02:55:21;;;;;;;10.10;9.03;;;2.10;99.90;;;;;;5054552;28;20185;-69
2022/02/13 02:57:47;;;;;;;10.93;9.67;;;2.10;99.90;;;;;;5054307;28;20457;-69
2022/02/13 03:00:13;;;;;;;9.50;8.60;;;2.00;99.90;;;;;;5054913;28;20205;-69
2022/02/13 03:02:38;;;;;;;10.57;9.47;;;2.00;99.90;;;;;;5054375;28;20180;-69
2022/02/13 03:05:04;;;;;;;10.60;9.50;;;2.00;99.90;;;;;;5055325;28;20193;-69
2022/02/13 03:07:30;;;;;;;9.57;8.57;;;2.20;99.90;;;;;;5054606;28;20177;-69
2022/02/13 03:09:55;;;;;;;9.10;7.80;;;2.30;99.90;;;;;;5054466;28;20499;-69
2022/02/13 03:12:21;;;;;;;10.53;9.50;;;2.40;99.90;;;;;;5055087;28;20177;-69
2022/02/13 03:14:47;;;;;;;13.10;9.93;;;2.50;99.90;;;;;;5054832;28;20174;-68
2022/02/13 03:17:13;;;;;;;9.07;8.13;;;2.50;99.90;;;;;;5053428;28;20469;-70
2022/02/13 03:19:39;;;;;;;10.40;8.87;;;2.70;99.90;;;;;;5054737;28;20689;-70
2022/02/13 03:22:05;;;;;;;9.53;8.53;;;2.80;99.90;;;;;;5054675;28;20236;-70
2022/02/13 03:24:32;;;;;;;11.50;9.73;;;2.80;99.90;;;;;;5054125;28;20472;-70
2022/02/13 03:26:57;;;;;;;11.47;8.70;;;2.70;99.90;;;;;;5053641;28;20420;-70
2022/02/13 03:29:23;;;;;;;10.63;9.30;;;2.80;99.90;;;;;;5050928;28;20437;-70
2022/02/13 03:31:48;;;;;;;10.73;8.27;;;2.90;99.90;;;;;;5051834;28;20328;-70
2022/02/13 03:34:14;;;;;;;11.17;9.90;;;2.90;99.90;;;;;;5051898;28;20761;-70
2022/02/13 03:36:40;;;;;;;10.83;9.67;;;3.10;99.90;;;;;;5051171;28;20182;-70
2022/02/13 03:39:05;;;;;;;12.03;9.40;;;3.10;99.90;;;;;;5051175;28;20285;-70
2022/02/13 03:41:31;;;;;;;11.37;9.20;;;3.10;99.90;;;;;;5051436;28;20277;-70
2022/02/13 03:43:57;;;;;;;9.70;8.20;;;3.10;99.90;;;;;;5051324;28;20189;-69
2022/02/13 03:46:23;;;;;;;14.83;8.17;;;3.20;99.90;;;;;;5051030;28;20417;-68
2022/02/13 03:48:48;;;;;;;12.47;8.83;;;3.20;99.90;;;;;;5032676;28;20683;-70
2022/02/13 03:51:14;;;;;;;10.70;8.60;;;3.30;99.90;;;;;;5050578;28;20796;-70
2022/02/13 03:53:40;;;;;;;12.07;9.00;;;3.20;99.90;;;;;;5051405;28;20888;-68
2022/02/13 03:56:05;;;;;;;9.37;8.43;;;3.10;99.90;;;;;;5051069;28;20713;-70
2022/02/13 03:58:31;;;;;;;10.13;9.13;;;3.10;99.90;;;;;;5050450;28;20240;-70
2022/02/13 04:00:57;;;;;;;9.30;8.30;;;3.10;99.90;;;;;;5050320;28;20229;-70
2022/02/13 04:03:23;;;;;;;11.70;9.10;;;3.20;99.90;;;;;;5051001;28;20409;-70
2022/02/13 04:05:49;;;;;;;10.03;9.03;;;3.20;99.90;;;;;;5050390;28;20416;-70
2022/02/13 04:08:14;;;;;;;10.03;8.87;;;3.20;99.90;;;;;;5050864;28;20198;-70
2022/02/13 04:10:40;;;;;;;10.70;8.00;;;2.90;99.90;;;;;;5050220;28;20769;-70
2022/02/13 04:13:05;;;;;;;8.50;7.30;;;2.90;99.90;;;;;;5050473;28;20229;-70
2022/02/13 04:15:31;;;;;;;10.23;7.90;;;2.90;99.90;;;;;;5050565;28;20186;-70
2022/02/13 04:17:57;;;;;;;11.60;9.27;;;3.00;99.90;;;;;;5049823;28;20308;-70
2022/02/13 04:20:22;;;;;;;9.17;8.23;;;2.90;99.90;;;;;;5049921;28;20202;-70
2022/02/13 04:22:48;;;;;;;10.40;8.73;;;2.90;99.90;;;;;;5050104;28;20535;-70
2022/02/13 04:25:14;;;;;;;9.07;8.00;;;2.80;99.90;;;;;;5049854;28;20175;-69
2022/02/13 04:27:39;;;;;;;11.63;8.73;;;2.70;99.90;;;;;;5048960;28;20433;-69
2022/02/13 04:30:06;;;;;;;9.53;8.43;;;2.70;99.90;;;;;;5045959;28;20185;-69
2022/02/13 04:32:32;;;;;;;10.80;9.00;;;2.80;99.90;;;;;;5045112;28;20182;-69
2022/02/13 04:34:58;;;;;;;13.33;9.93;;;2.80;99.90;;;;;;5050047;28;20447;-69
2022/02/13 04:37:23;;;;;;;12.07;10.97;;;2.80;99.90;;;;;;5049572;28;20419;-69
2022/02/13 04:39:50;;;;;;;12.60;10.20;;;2.60;99.90;;;;;;5036387;28;20631;-69
2022/02/13 04:42:15;;;;;;;11.90;9.47;;;2.60;99.90;;;;;;5048180;28;20245;-69
2022/02/13 04:44:42;;;;;;;18.63;15.43;;;2.60;99.90;;;;;;5049066;28;20440;-69
2022/02/13 04:47:08;;;;;;;16.67;11.70;;;2.60;99.90;;;;;;5033336;28;20696;-69
2022/02/13 04:49:34;;;;;;;22.67;19.70;;;2.70;99.90;;;;;;5049642;28;20435;-69
2022/02/13 04:52:00;;;;;;;18.53;13.90;;;2.70;99.90;;;;;;5031699;28;20432;-69
2022/02/13 04:54:25;;;;;;;13.20;11.80;;;2.70;99.90;;;;;;5031707;28;20424;-69
2022/02/13 04:56:51;;;;;;;17.13;11.70;;;2.80;99.90;;;;;;5049297;28;20189;-69
2022/02/13 04:59:18;;;;;;;15.83;12.90;;;2.80;99.90;;;;;;5046272;28;20245;-69
2022/02/13 05:01:44;;;;;;;11.97;10.43;;;2.70;99.90;;;;;;5047340;28;20517;-70
2022/02/13 05:04:09;;;;;;;14.30;11.17;;;2.60;99.90;;;;;;5044904;28;20768;-70
2022/02/13 05:06:35;;;;;;;14.80;11.90;;;2.70;99.90;;;;;;5032587;28;20233;-70
2022/02/13 05:09:01;;;;;;;20.63;16.50;;;2.70;99.90;;;;;;5046129;28;20664;-70
2022/02/13 05:11:27;;;;;;;27.40;20.70;;;2.70;99.90;;;;;;5048843;28;20182;-68
2022/02/13 05:13:53;;;;;;;14.97;13.43;;;2.80;99.90;;;;;;5049490;28;20480;-70
2022/02/13 05:16:19;;;;;;;25.87;19.60;;;2.80;99.90;;;;;;5049013;28;20931;-70
2022/02/13 05:18:45;;;;;;;20.53;15.83;;;2.70;99.90;;;;;;5029805;28;20515;-70
2022/02/13 05:21:10;;;;;;;20.63;17.83;;;2.70;99.90;;;;;;5047314;28;20705;-70
2022/02/13 05:23:36;;;;;;;19.03;14.97;;;2.70;99.90;;;;;;5048234;28;20178;-70
2022/02/13 05:26:02;;;;;;;18.57;13.90;;;2.80;99.90;;;;;;5049226;28;20182;-70
2022/02/13 05:28:28;;;;;;;20.93;14.10;;;2.70;99.90;;;;;;5047455;28;20196;-70
2022/02/13 05:30:54;;;;;;;16.70;13.90;;;2.70;99.90;;;;;;5049002;28;20409;-71
2022/02/13 05:33:19;;;;;;;14.50;11.67;;;2.70;99.90;;;;;;5048805;28;20423;-70
2022/02/13 05:35:45;;;;;;;15.47;12.10;;;2.70;99.90;;;;;;5048923;28;20179;-70
2022/02/13 05:38:10;;;;;;;20.47;12.80;;;2.70;99.90;;;;;;5047478;28;20209;-70
2022/02/13 05:40:36;;;;;;;15.03;13.43;;;2.60;99.90;;;;;;5048711;28;20605;-70
2022/02/13 05:43:02;;;;;;;12.20;11.00;;;2.70;99.90;;;;;;5048402;28;20181;-70
2022/02/13 05:45:27;;;;;;;15.93;14.30;;;2.70;99.90;;;;;;5049431;28;20179;-70
2022/02/13 05:47:53;;;;;;;18.60;14.40;;;2.60;99.90;;;;;;5048161;28;20201;-70
2022/02/13 05:50:18;;;;;;;15.30;13.20;;;2.60;99.90;;;;;;5032698;28;20178;-70
2022/02/13 05:52:44;;;;;;;16.43;11.93;;;2.60;99.90;;;;;;5048612;28;20182;-70
2022/02/13 05:55:10;;;;;;;12.87;11.57;;;2.70;99.90;;;;;;5048775;28;20179;-72
2022/02/13 05:57:41;;;;;;;15.73;10.63;;;2.70;99.90;;;;;;5030113;28;20213;-70
2022/02/13 06:00:08;;;;;;;10.80;9.70;;;2.70;99.90;;;;;;5062244;22;20682;-69
2022/02/13 06:02:34;;;;;;;14.23;12.00;;;2.80;99.90;;;;;;5051753;28;20470;-69
2022/02/13 06:04:59;;;;;;;14.07;12.50;;;2.80;99.90;;;;;;5063356;28;20412;-70
2022/02/13 06:07:25;;;;;;;13.73;10.37;;;2.80;99.90;;;;;;5048528;28;20733;-70
2022/02/13 06:09:51;;;;;;;19.40;16.87;;;2.90;99.90;;;;;;5063085;28;20548;-70
2022/02/13 06:12:16;;;;;;;18.30;14.00;;;2.80;99.90;;;;;;5045388;28;20185;-70
2022/02/13 06:14:42;;;;;;;19.07;16.23;;;2.80;99.90;;;;;;5063111;28;20185;-71
2022/02/13 06:17:07;;;;;;;14.83;12.60;;;2.60;99.90;;;;;;5054755;28;20179;-70
2022/02/13 06:19:33;;;;;;;15.37;11.20;;;2.70;99.90;;;;;;5042698;28;20198;-70
2022/02/13 06:21:58;;;;;;;13.30;11.10;;;2.80;99.90;;;;;;5040254;28;20241;-70
2022/02/13 06:24:24;;;;;;;11.10;9.83;;;2.90;99.90;;;;;;5063062;28;20212;-70
2022/02/13 06:26:49;;;;;;;9.73;8.40;;;2.90;99.90;;;;;;5060493;28;20182;-69
2022/02/13 06:29:17;;;;;;;8.53;7.80;;;3.00;99.90;;;;;;5055141;28;20759;-70
2022/02/13 06:31:43;;;;;;;7.83;6.97;;;3.10;99.90;;;;;;5063672;28;20174;-69
2022/02/13 06:34:08;;;;;;;8.70;7.03;;;2.90;99.90;;;;;;5063202;28;20961;-67
2022/02/13 06:36:34;;;;;;;6.67;6.07;;;3.10;99.90;;;;;;5063517;28;20178;-69
2022/02/13 06:38:59;;;;;;;7.13;6.40;;;3.20;99.90;;;;;;5063370;28;20173;-69
2022/02/13 06:41:25;;;;;;;7.43;6.50;;;3.20;99.90;;;;;;5062791;28;20201;-70
2022/02/13 06:43:51;;;;;;;12.20;7.00;;;3.30;99.90;;;;;;5033537;28;20188;-70
2022/02/13 06:46:16;;;;;;;6.73;6.10;;;3.40;99.90;;;;;;5062675;28;20174;-71
2022/02/13 06:48:42;;;;;;;6.90;6.10;;;3.50;99.90;;;;;;5057762;28;20658;-69
2022/02/13 06:51:10;;;;;;;7.53;6.17;;;3.60;99.90;;;;;;5052223;28;20200;-68
2022/02/13 06:53:35;;;;;;;7.17;5.83;;;3.70;99.90;;;;;;5055130;28;20183;-69
2022/02/13 06:56:01;;;;;;;6.97;6.27;;;3.80;99.90;;;;;;5042695;28;20447;-68
2022/02/13 06:58:28;;;;;;;7.97;5.50;;;3.90;99.90;;;;;;5044713;28;20182;-68
2022/02/13 07:00:53;;;;;;;8.23;5.93;;;4.10;99.90;;;;;;5042979;28;20781;-68
2022/02/13 07:03:19;;;;;;;7.67;5.60;;;4.10;99.90;;;;;;5052017;28;20534;-69
2022/02/13 07:05:45;;;;;;;10.03;5.60;;;4.20;99.90;;;;;;5065957;28;20220;-70
2022/02/13 07:08:10;;;;;;;10.17;6.30;;;4.40;99.90;;;;;;5047358;28;20555;-70
2022/02/13 07:10:36;;;;;;;5.87;5.30;;;4.60;99.90;;;;;;5046534;28;20195;-70
2022/02/13 07:13:02;;;;;;;7.67;6.60;;;4.60;99.90;;;;;;5046818;28;20261;-70
2022/02/13 07:15:28;;;;;;;7.93;6.20;;;4.60;99.90;;;;;;5053422;28;20969;-70
2022/02/13 07:17:54;;;;;;;7.43;5.80;;;4.70;99.90;;;;;;5048527;28;20190;-69
2022/02/13 07:20:19;;;;;;;5.57;5.07;;;4.80;99.90;;;;;;5057012;28;20190;-70
2022/02/13 07:22:45;;;;;;;10.50;6.47;;;4.80;99.90;;;;;;5054905;28;20819;-69
2022/02/13 07:25:11;;;;;;;6.80;5.67;;;4.80;99.90;;;;;;5062786;28;20178;-71
2022/02/13 07:27:37;;;;;;;7.40;5.80;;;4.90;99.90;;;;;;5046038;28;20229;-70
2022/02/13 07:30:05;;;;;;;8.10;6.20;;;4.90;99.90;;;;;;5055486;28;20186;-70
2022/02/13 07:32:32;;;;;;;7.80;6.30;;;5.00;99.90;;;;;;5059146;28;20419;-69
2022/02/13 07:34:57;;;;;;;14.00;6.00;;;5.00;99.90;;;;;;5065895;28;20427;-69
2022/02/13 07:37:24;;;;;;;15.30;9.83;;;5.00;99.90;;;;;;5046818;28;20409;-70
2022/02/13 07:39:50;;;;;;;14.50;8.67;;;5.00;99.90;;;;;;5045871;28;20182;-70
2022/02/13 07:42:17;;;;;;;12.17;8.00;;;5.00;99.90;;;;;;5027700;28;20806;-69
2022/02/13 07:44:43;;;;;;;6.77;6.07;;;5.10;99.90;;;;;;5045687;28;20406;-69
2022/02/13 07:47:08;;;;;;;6.97;6.27;;;5.10;99.90;;;;;;5046316;28;20413;-69
2022/02/13 07:49:34;;;;;;;9.47;6.10;;;5.10;99.90;;;;;;5045388;28;21168;-69
2022/02/13 07:51:59;;;;;;;6.67;5.77;;;5.10;99.90;;;;;;5046114;28;20206;-69
2022/02/13 07:54:27;;;;;;;6.40;5.53;;;5.10;99.90;;;;;;5056400;28;20648;-70
2022/02/13 07:56:52;;;;;;;9.40;6.47;;;5.20;99.90;;;;;;5065532;28;20194;-70
2022/02/13 07:59:18;;;;;;;7.77;6.37;;;5.30;99.90;;;;;;5045789;28;20516;-70
2022/02/13 08:01:44;;;;;;;6.10;5.50;;;5.50;99.90;;;;;;5061390;28;20224;-70
2022/02/13 08:04:09;;;;;;;7.07;6.30;;;5.50;99.90;;;;;;5065280;28;20174;-69
2022/02/13 08:06:35;;;;;;;6.53;5.63;;;5.70;99.90;;;;;;5045608;28;20465;-70
2022/02/13 08:09:00;;;;;;;6.33;5.47;;;5.70;99.90;;;;;;5058872;28;20174;-70
2022/02/13 08:11:26;;;;;;;9.60;6.30;;;5.80;99.90;;;;;;5063115;28;20174;-70
2022/02/13 08:13:51;;;;;;;6.43;5.43;;;5.90;99.90;;;;;;5044760;28;20174;-69
2022/02/13 08:16:18;;;;;;;7.10;5.90;;;6.00;99.90;;;;;;5045327;28;20186;-70
2022/02/13 08:18:44;;;;;;;8.87;6.93;;;6.00;99.90;;;;;;5045484;28;20177;-71
2022/02/13 08:21:09;;;;;;;7.93;6.20;;;6.10;99.90;;;;;;5048757;28;20455;-71
2022/02/13 08:23:36;;;;;;;6.30;5.67;;;6.10;99.90;;;;;;5062182;28;20588;-71
2022/02/13 08:26:02;;;;;;;6.90;6.07;;;6.20;99.90;;;;;;5045958;28;20221;-70
2022/02/13 08:28:29;;;;;;;9.00;6.57;;;6.20;99.90;;;;;;5044828;28;20835;-69
2022/02/13 08:30:55;;;;;;;7.53;5.60;;;6.30;99.90;;;;;;5053773;28;20439;-69
2022/02/13 08:33:20;;;;;;;5.77;5.17;;;6.40;99.90;;;;;;5045279;28;20421;-69
2022/02/13 08:35:46;;;;;;;8.37;6.43;;;6.40;99.90;;;;;;5049817;28;20200;-70
2022/02/13 08:38:12;;;;;;;6.70;5.50;;;6.40;99.90;;;;;;5050325;28;20167;-70
2022/02/13 08:40:38;;;;;;;6.70;5.57;;;6.50;99.90;;;;;;5057894;28;20701;-69
2022/02/13 08:43:03;;;;;;;7.60;5.80;;;6.60;99.90;;;;;;5064425;28;20451;-70
2022/02/13 08:45:30;;;;;;;9.50;5.73;;;6.60;99.90;;;;;;5065014;28;20607;-70
2022/02/13 08:47:56;;;;;;;9.47;5.60;;;6.70;99.90;;;;;;5064866;28;20208;-70
2022/02/13 08:50:23;;;;;;;6.50;5.90;;;6.80;99.90;;;;;;5059136;28;20458;-69
2022/02/13 08:52:49;;;;;;;7.63;5.80;;;6.80;99.90;;;;;;5050898;28;20932;-71
2022/02/13 08:55:15;;;;;;;6.33;5.73;;;6.90;99.90;;;;;;5060248;28;20435;-68
2022/02/13 08:57:41;;;;;;;7.70;5.23;;;7.00;99.90;;;;;;5064139;28;20488;-71
2022/02/13 09:00:08;;;;;;;8.23;5.37;;;7.00;99.90;;;;;;5064256;28;20218;-69
2022/02/13 09:02:34;;;;;;;11.70;5.80;;;7.10;99.90;;;;;;5060599;28;20417;-69
2022/02/13 09:05:01;;;;;;;7.23;6.50;;;7.20;99.90;;;;;;5028968;28;20420;-71
2022/02/13 09:07:27;;;;;;;8.87;6.30;;;7.30;99.90;;;;;;5063541;28;20414;-70
2022/02/13 09:09:52;;;;;;;7.03;6.33;;;7.30;99.90;;;;;;5056384;28;20523;-71
2022/02/13 09:12:19;;;;;;;10.97;7.10;;;7.50;99.90;;;;;;5044537;28;20612;-70
2022/02/13 09:14:45;;;;;;;10.20;6.67;;;7.50;99.90;;;;;;5049930;28;20565;-70
2022/02/13 09:17:11;;;;;;;8.67;6.57;;;7.50;99.90;;;;;;5064398;28;20500;-72
2022/02/13 09:19:36;;;;;;;11.37;7.17;;;7.60;99.90;;;;;;5049632;28;20550;-70
2022/02/13 09:22:02;;;;;;;6.63;5.93;;;7.90;99.90;;;;;;5050996;28;20463;-72
2022/02/13 09:24:28;;;;;;;14.00;7.30;;;7.90;99.90;;;;;;5031003;28;20543;-70
2022/02/13 09:26:54;;;;;;;6.63;6.00;;;7.90;99.90;;;;;;5054971;28;20410;-70
2022/02/13 09:29:19;;;;;;;10.13;6.67;;;8.00;99.90;;;;;;5044285;28;20192;-69
2022/02/13 09:31:45;;;;;;;11.07;6.43;;;7.90;99.90;;;;;;5047200;28;20328;-69
2022/02/13 09:34:18;;;;;;;7.97;6.60;;;8.00;99.90;;;;;;5061908;28;20185;-71
2022/02/13 09:36:45;;;;;;;7.70;6.80;;;8.00;99.90;;;;;;5051249;28;20729;-71
2022/02/13 09:39:11;;;;;;;8.07;6.77;;;8.00;99.90;;;;;;5055869;28;20444;-69
2022/02/13 09:41:37;;;;;;;8.13;7.07;;;8.20;99.90;;;;;;5063654;28;20480;-70
2022/02/13 09:44:03;;;;;;;11.63;7.00;;;8.20;99.90;;;;;;5065441;28;20940;-71
2022/02/13 09:46:30;;;;;;;10.07;7.27;;;8.30;99.90;;;;;;5051497;28;20441;-71
2022/02/13 09:48:56;;;;;;;7.93;6.93;;;8.40;99.90;;;;;;5048208;28;20419;-70
2022/02/13 09:51:22;;;;;;;14.33;8.30;;;8.40;99.90;;;;;;5047592;28;20419;-70
2022/02/13 09:53:47;;;;;;;8.03;6.53;;;8.50;99.90;;;;;;5058138;28;20187;-71
2022/02/13 09:56:13;;;;;;;8.90;6.60;;;8.60;99.90;;;;;;5053977;28;20887;-71
2022/02/13 09:58:38;;;;;;;8.73;6.97;;;8.70;99.90;;;;;;5051572;28;20501;-70
2022/02/13 10:01:07;;;;;;;9.50;6.83;;;8.80;99.90;;;;;;5044720;28;20213;-70
2022/02/13 10:03:44;;;;;;;8.67;7.63;;;8.80;99.90;;;;;;5050237;28;20192;-71
2022/02/13 10:06:12;;;;;;;8.80;6.63;;;8.90;99.90;;;;;;5060078;28;20876;-70
2022/02/13 10:08:45;;;;;;;8.70;6.70;;;9.10;99.90;;;;;;5057171;28;20790;-69
2022/02/13 10:11:29;;;;;;;9.57;6.30;;;9.20;99.90;;;;;;5051267;28;20436;-72
2022/02/13 10:13:58;;;;;;;8.83;7.40;;;9.20;99.90;;;;;;5061591;28;20485;-71
2022/02/13 10:16:27;;;;;;;7.97;7.27;;;9.30;99.90;;;;;;5042685;28;20986;-72
2022/02/13 10:18:54;;;;;;;11.73;7.13;;;9.40;99.90;;;;;;5049311;28;20446;-70
2022/02/13 10:21:45;;;;;;;9.97;7.47;;;9.60;99.90;;;;;;5056436;28;20512;-70
2022/02/13 10:24:17;;;;;;;10.33;5.83;;;9.70;99.90;;;;;;5049856;28;20425;-69
2022/02/13 10:26:44;;;;;;;10.53;7.10;;;9.80;99.90;;;;;;5043493;28;20543;-71
2022/02/13 10:29:11;;;;;;;7.50;6.73;;;9.90;99.90;;;;;;5030281;28;20436;-70
2022/02/13 10:31:38;;;;;;;10.67;7.90;;;10.00;99.90;;;;;;5048623;28;20710;-69
2022/02/13 10:34:04;;;;;;;9.77;7.73;;;10.00;99.90;;;;;;5049757;28;20781;-70
2022/02/13 10:36:29;;;;;;;9.87;7.07;;;9.90;99.90;;;;;;5057850;28;20412;-71
2022/02/13 10:38:55;;;;;;;9.83;6.50;;;10.00;99.90;;;;;;5052823;28;20294;-71
2022/02/13 10:41:24;;;;;;;8.80;7.00;;;10.10;99.90;;;;;;5058941;28;20288;-70
2022/02/13 10:43:56;;;;;;;9.80;6.90;;;10.20;99.90;;;;;;5054054;28;20186;-70
2022/02/13 10:46:30;;;;;;;10.50;6.80;;;10.30;99.90;;;;;;5049472;28;20413;-70
2022/02/13 10:48:56;;;;;;;9.63;6.90;;;10.40;99.90;;;;;;5056410;28;20392;-71
2022/02/13 10:51:23;;;;;;;12.03;6.53;;;10.40;99.90;;;;;;5050805;28;20422;-70
2022/02/13 10:53:50;;;;;;;10.07;7.13;;;10.40;99.90;;;;;;5053932;28;20424;-70
2022/02/13 10:56:15;;;;;;;8.40;6.70;;;10.40;99.90;;;;;;5059934;28;20417;-69
2022/02/13 10:58:41;;;;;;;8.57;6.80;;;10.50;99.90;;;;;;5054724;28;20419;-70
2022/02/13 11:01:07;;;;;;;12.20;6.87;;;10.60;99.90;;;;;;5061726;28;20241;-71
2022/02/13 11:03:35;;;;;;;10.47;6.70;;;10.70;99.90;;;;;;5048453;28;20523;-71
2022/02/13 11:06:03;;;;;;;8.80;6.20;;;10.80;99.90;;;;;;5047907;28;20405;-70
2022/02/13 11:08:31;;;;;;;8.57;5.90;;;11.00;99.90;;;;;;5050945;28;20409;-70
2022/02/13 11:10:58;;;;;;;10.23;7.47;;;11.10;99.90;;;;;;5046790;28;20434;-70
2022/02/13 11:13:32;;;;;;;8.63;6.90;;;11.30;99.90;;;;;;5046860;28;20504;-70
2022/02/13 11:15:58;;;;;;;10.30;7.17;;;11.40;99.90;;;;;;5066722;28;20458;-70
2022/02/13 11:18:26;;;;;;;7.53;6.40;;;12.00;99.70;;;;;;5047576;28;20444;-71
2022/02/13 11:20:55;;;;;;;10.10;7.13;;;14.10;97.10;;;;;;5050548;28;20208;-71
2022/02/13 11:23:31;;;;;;;7.23;4.60;;;15.90;93.50;;;;;;5060952;28;20783;-71
2022/02/13 11:26:02;;;;;;;9.97;6.20;;;18.10;90.00;;;;;;5059139;28;20437;-72
2022/02/13 11:28:45;;;;;;;7.23;6.03;;;18.70;84.00;;;;;;5051931;28;20428;-70
2022/02/13 11:31:39;;;;;;;13.87;7.30;;;18.60;81.30;;;;;;5050094;28;20436;-72
2022/02/13 11:34:07;;;;;;;7.03;5.37;;;18.60;78.00;;;;;;5035427;28;20432;-73
2022/02/13 11:36:57;;;;;;;7.77;5.73;;;18.80;75.80;;;;;;5051962;28;20444;-71
2022/02/13 11:39:41;;;;;;;12.33;6.63;;;20.60;74.00;;;;;;5048671;28;20421;-72
2022/02/13 11:42:19;;;;;;;11.13;6.53;;;22.00;68.30;;;;;;5060475;28;20452;-70
2022/02/13 11:44:57;;;;;;;8.57;6.50;;;21.00;68.40;;;;;;5060765;28;20712;-70
2022/02/13 11:47:32;;;;;;;6.83;6.10;;;21.10;66.60;;;;;;5045831;28;20397;-71
2022/02/13 11:50:03;;;;;;;8.63;5.30;;;21.00;64.20;;;;;;5026573;28;20479;-71
2022/02/13 11:52:30;;;;;;;7.67;4.90;;;20.50;62.10;;;;;;5058738;28;20789;-71
2022/02/13 11:54:58;;;;;;;5.70;4.73;;;20.10;62.60;;;;;;5063608;28;20400;-72
2022/02/13 11:57:28;;;;;;;8.60;5.30;;;20.40;62.30;;;;;;5054468;28;20408;-71
2022/02/13 11:59:56;;;;;;;6.07;4.80;;;20.40;60.80;;;;;;5051094;28;20496;-71
2022/02/13 12:02:31;;;;;;;7.97;4.90;;;21.40;59.30;;;;;;5054123;28;20842;-72
2022/02/13 12:05:05;;;;;;;7.67;4.70;;;20.50;59.20;;;;;;5049842;28;20770;-71
2022/02/13 12:07:46;;;;;;;6.03;4.43;;;19.60;58.70;;;;;;5065202;28;20577;-71
2022/02/13 12:10:18;;;;;;;9.83;4.97;;;19.70;58.70;;;;;;5065374;28;20444;-72
2022/02/13 12:12:44;;;;;;;5.63;4.03;;;20.10;59.00;;;;;;5051702;28;20464;-71
2022/02/13 12:15:12;;;;;;;8.57;4.67;;;21.10;58.10;;;;;;5056041;28;20770;-72
2022/02/13 12:17:38;;;;;;;6.27;4.00;;;21.40;56.40;;;;;;5070698;22;21064;-72
2022/02/13 12:20:09;;;;;;;5.20;4.43;;;22.60;55.90;;;;;;5044822;28;20500;-74
2022/02/13 12:22:35;;;;;;;5.87;3.83;;;21.50;55.10;;;;;;5045059;28;20399;-72
2022/02/13 12:25:06;;;;;;;6.27;4.17;;;20.70;54.40;;;;;;5044976;28;20872;-73
2022/02/13 12:27:32;;;;;;;4.47;3.70;;;20.50;55.70;;;;;;5043998;28;20433;-74
2022/02/13 12:30:04;;;;;;;4.50;4.10;;;21.60;53.90;;;;;;5045053;28;20482;-73
2022/02/13 12:32:32;;;;;;;8.83;4.70;;;21.90;52.50;;;;;;5045086;28;20221;-73
2022/02/13 12:35:00;;;;;;;6.13;4.57;;;21.40;53.20;;;;;;5044074;28;20467;-72
2022/02/13 12:37:45;;;;;;;6.70;4.67;;;20.40;54.50;;;;;;5044733;28;20432;-72
2022/02/13 12:40:12;;;;;;;6.53;4.07;;;20.30;55.20;;;;;;5044932;28;20405;-72
2022/02/13 12:42:41;;;;;;;5.63;4.30;;;21.00;54.40;;;;;;5044304;28;20690;-73